Time;durP1;ratioP1;P1;durP2;ratioP2;P2;SDS_P1;SDS_P2;PMS_P1;PMS_P2;Temp;Humidity;BMP_temperature;BMP_pressure;BME280_temperature;BME280_humidity;BME280_pressure;Samples;Min_cycle;Max_cycle;Signal;HPM_P1;HPM_P2
2024/02/16 00:01:30;;;;;;;4.07;2.97;;;;;;;;;;5036878;28;20268;-68
2024/02/16 00:03:55;;;;;;;5.68;3.30;;;;;;;;;;5041805;28;20177;-70
2024/02/16 00:06:20;;;;;;;5.07;2.92;;;;;;;;;;5042120;28;20668;-70
2024/02/16 00:08:46;;;;;;;5.13;2.95;;;;;;;;;;5045828;28;20202;-69
2024/02/16 00:11:11;;;;;;;5.00;2.85;;;;;;;;;;5042936;28;20181;-69
2024/02/16 00:13:37;;;;;;;7.75;4.05;;;;;;;;;;5046483;28;20176;-69
2024/02/16 00:16:02;;;;;;;4.25;3.00;;;;;;;;;;5039325;28;20209;-69
2024/02/16 00:18:27;;;;;;;4.38;2.85;;;;;;;;;;5040094;28;20189;-69
2024/02/16 00:20:53;;;;;;;8.65;3.30;;;;;;;;;;5032722;28;20177;-69
2024/02/16 00:23:22;;;;;;;3.63;2.97;;;;;;;;;;5043638;28;20213;-69
2024/02/16 00:25:47;;;;;;;4.93;3.28;;;;;;;;;;5048804;28;20209;-69
2024/02/16 00:28:13;;;;;;;6.93;3.67;;;;;;;;;;5021717;28;20205;-69
2024/02/16 00:30:38;;;;;;;4.15;3.00;;;;;;;;;;5047408;28;20182;-70
2024/02/16 00:33:03;;;;;;;3.83;2.83;;;;;;;;;;5048509;28;20177;-71
2024/02/16 00:35:33;;;;;;;3.35;2.45;;;;;;;;;;5048505;28;20680;-69
2024/02/16 00:37:58;;;;;;;5.50;3.22;;;;;;;;;;5027857;28;20174;-70
2024/02/16 00:40:23;;;;;;;5.22;2.78;;;;;;;;;;5033918;28;20652;-69
2024/02/16 00:42:48;;;;;;;5.60;3.30;;;;;;;;;;5029128;28;20184;-70
2024/02/16 00:45:14;;;;;;;4.30;2.70;;;;;;;;;;5047709;28;20210;-71
2024/02/16 00:47:39;;;;;;;3.95;2.97;;;;;;;;;;5040391;28;20189;-70
2024/02/16 00:50:05;;;;;;;6.68;2.97;;;;;;;;;;5042666;28;20206;-69
2024/02/16 00:52:30;;;;;;;4.47;2.97;;;;;;;;;;5046130;28;20180;-68
2024/02/16 00:54:55;;;;;;;3.97;2.60;;;;;;;;;;5047613;28;20649;-70
2024/02/16 00:57:21;;;;;;;5.07;2.80;;;;;;;;;;5047861;28;20223;-70
2024/02/16 00:59:46;;;;;;;9.00;3.00;;;;;;;;;;5044019;28;20221;-68
2024/02/16 01:02:11;;;;;;;4.13;2.63;;;;;;;;;;5042125;28;20246;-69
2024/02/16 01:04:36;;;;;;;5.50;2.88;;;;;;;;;;5041169;28;20180;-69
2024/02/16 01:07:03;;;;;;;6.10;3.25;;;;;;;;;;5036635;28;20201;-69
2024/02/16 01:09:28;;;;;;;5.35;2.33;;;;;;;;;;5046916;28;20197;-69
2024/02/16 01:11:53;;;;;;;5.57;2.70;;;;;;;;;;5038090;28;20177;-70
2024/02/16 01:14:18;;;;;;;3.53;2.63;;;;;;;;;;5045975;28;20641;-70
2024/02/16 01:16:44;;;;;;;8.32;2.92;;;;;;;;;;5042788;28;20202;-70
2024/02/16 01:19:09;;;;;;;3.47;2.35;;;;;;;;;;5046766;28;20568;-69
2024/02/16 01:21:34;;;;;;;3.47;2.95;;;;;;;;;;5047595;28;20549;-70
2024/02/16 01:24:00;;;;;;;4.68;2.47;;;;;;;;;;5031445;28;20280;-69
2024/02/16 01:26:26;;;;;;;3.80;2.60;;;;;;;;;;5049258;28;20206;-69
2024/02/16 01:28:51;;;;;;;4.28;2.88;;;;;;;;;;5047016;28;20214;-67
2024/02/16 01:31:16;;;;;;;3.95;2.72;;;;;;;;;;5044686;28;20167;-70
2024/02/16 01:33:42;;;;;;;5.30;3.33;;;;;;;;;;5037498;28;20267;-69
2024/02/16 01:36:07;;;;;;;3.92;2.80;;;;;;;;;;5046143;28;20190;-70
2024/02/16 01:38:33;;;;;;;4.78;2.63;;;;;;;;;;5048211;28;20205;-69
2024/02/16 01:40:58;;;;;;;4.40;2.97;;;;;;;;;;5035300;28;20653;-70
2024/02/16 01:43:23;;;;;;;3.80;2.63;;;;;;;;;;5045784;28;20366;-69
2024/02/16 01:45:48;;;;;;;4.93;2.90;;;;;;;;;;5044586;28;20264;-69
2024/02/16 01:48:14;;;;;;;4.53;3.00;;;;;;;;;;5045527;28;20173;-70
2024/02/16 01:50:40;;;;;;;3.58;2.65;;;;;;;;;;5043352;28;20177;-69
2024/02/16 01:53:05;;;;;;;7.03;4.15;;;;;;;;;;5047170;28;20657;-70
2024/02/16 01:55:31;;;;;;;6.30;3.40;;;;;;;;;;5023958;28;20205;-68
2024/02/16 01:57:57;;;;;;;8.75;2.88;;;;;;;;;;5040290;28;20182;-70
2024/02/16 02:00:23;;;;;;;4.88;2.72;;;;;;;;;;5042205;28;20227;-70
2024/02/16 02:02:48;;;;;;;6.45;2.97;;;;;;;;;;5023013;28;20182;-69
2024/02/16 02:05:14;;;;;;;3.00;2.58;;;;;;;;;;5046670;28;20198;-67
2024/02/16 02:07:40;;;;;;;6.13;3.20;;;;;;;;;;5050459;28;20174;-69
2024/02/16 02:10:05;;;;;;;4.60;3.25;;;;;;;;;;5044324;28;20267;-70
2024/02/16 02:12:31;;;;;;;4.35;2.30;;;;;;;;;;5046839;28;20177;-68
2024/02/16 02:14:56;;;;;;;5.32;3.15;;;;;;;;;;5037687;28;20178;-69
2024/02/16 02:17:21;;;;;;;4.82;2.75;;;;;;;;;;5034130;28;20725;-70
2024/02/16 02:19:46;;;;;;;6.10;3.17;;;;;;;;;;5040040;28;20209;-69
2024/02/16 02:22:13;;;;;;;5.18;3.00;;;;;;;;;;5046120;28;20661;-69
2024/02/16 02:24:39;;;;;;;3.35;2.80;;;;;;;;;;5043149;28;20196;-70
2024/02/16 02:27:04;;;;;;;3.60;2.30;;;;;;;;;;5040633;28;20672;-70
2024/02/16 02:29:29;;;;;;;4.25;2.90;;;;;;;;;;5039788;28;20213;-70
2024/02/16 02:31:55;;;;;;;4.78;2.97;;;;;;;;;;5031209;28;20170;-68
2024/02/16 02:34:20;;;;;;;3.40;2.80;;;;;;;;;;5038219;28;20176;-70
2024/02/16 02:36:45;;;;;;;4.88;2.92;;;;;;;;;;5032464;28;20205;-69
2024/02/16 02:39:11;;;;;;;3.75;2.38;;;;;;;;;;5040561;28;20261;-70
2024/02/16 02:41:36;;;;;;;4.25;2.88;;;;;;;;;;5039996;28;20541;-69
2024/02/16 02:44:01;;;;;;;5.00;2.70;;;;;;;;;;5041441;28;20236;-68
2024/02/16 02:46:27;;;;;;;3.65;2.70;;;;;;;;;;5061236;22;20894;-71
2024/02/16 02:48:53;;;;;;;4.32;2.72;;;;;;;;;;5050881;28;20610;-72
2024/02/16 02:51:18;;;;;;;6.03;2.95;;;;;;;;;;5039166;28;20178;-70
2024/02/16 02:53:43;;;;;;;8.50;2.58;;;;;;;;;;5058795;28;20232;-72
2024/02/16 02:56:08;;;;;;;7.85;3.05;;;;;;;;;;5045269;28;20234;-72
2024/02/16 02:58:33;;;;;;;2.92;2.65;;;;;;;;;;5052961;28;20173;-72
2024/02/16 03:00:59;;;;;;;5.10;3.17;;;;;;;;;;5031210;28;20189;-74
2024/02/16 03:03:24;;;;;;;3.55;2.85;;;;;;;;;;5054695;28;20184;-71
2024/02/16 03:05:50;;;;;;;3.90;2.65;;;;;;;;;;5051277;28;20208;-72
2024/02/16 03:08:15;;;;;;;4.43;2.43;;;;;;;;;;5050149;28;20660;-72
2024/02/16 03:10:40;;;;;;;3.45;2.58;;;;;;;;;;5044139;28;20192;-71
2024/02/16 03:13:06;;;;;;;4.18;2.90;;;;;;;;;;5050449;28;20181;-71
2024/02/16 03:15:33;;;;;;;4.55;2.30;;;;;;;;;;5050146;28;20177;-72
2024/02/16 03:17:58;;;;;;;5.90;3.43;;;;;;;;;;5055155;28;20575;-72
2024/02/16 03:20:24;;;;;;;3.70;3.00;;;;;;;;;;5050174;28;20177;-72
2024/02/16 03:22:49;;;;;;;3.67;2.97;;;;;;;;;;5030830;28;20671;-72
2024/02/16 03:25:14;;;;;;;3.93;3.20;;;;;;;;;;5055732;28;20550;-71
2024/02/16 03:27:41;;;;;;;3.88;2.30;;;;;;;;;;5047829;28;20197;-71
2024/02/16 03:30:06;;;;;;;3.38;2.85;;;;;;;;;;5048240;28;20205;-73
2024/02/16 03:32:31;;;;;;;4.15;2.55;;;;;;;;;;5053202;28;20188;-72
2024/02/16 03:34:58;;;;;;;4.13;2.90;;;;;;;;;;5045101;28;20181;-72
2024/02/16 03:37:23;;;;;;;4.38;3.28;;;;;;;;;;5054957;28;20193;-73
2024/02/16 03:39:48;;;;;;;4.27;2.93;;;;;;;;;;5052805;28;20181;-72
2024/02/16 03:42:13;;;;;;;8.07;3.40;;;;;;;;;;5056762;28;20181;-72
2024/02/16 03:44:39;;;;;;;5.53;2.20;;;;;;;;;;5052025;28;20196;-72
2024/02/16 03:47:04;;;;;;;6.27;3.27;;;;;;;;;;5052863;28;20205;-71
2024/02/16 03:49:29;;;;;;;3.23;2.50;;;;;;;;;;5027192;28;20201;-71
2024/02/16 03:51:54;;;;;;;3.83;2.40;;;;;;;;;;5050894;28;20181;-72
2024/02/16 03:54:19;;;;;;;4.13;2.97;;;;;;;;;;5049718;28;20204;-72
2024/02/16 03:56:45;;;;;;;4.03;3.25;;;;;;;;;;5038066;28;20201;-72
2024/02/16 03:59:10;;;;;;;4.93;3.30;;;;;;;;;;5043917;28;20201;-72
2024/02/16 04:01:36;;;;;;;3.25;2.40;;;;;;;;;;5045916;28;20714;-72
2024/02/16 04:04:03;;;;;;;4.07;2.40;;;;;;;;;;5055639;28;20261;-73
2024/02/16 04:06:28;;;;;;;3.23;2.70;;;;;;;;;;5049626;28;20221;-72
2024/02/16 04:08:53;;;;;;;6.32;2.78;;;;;;;;;;5051806;28;20681;-73
2024/02/16 04:11:18;;;;;;;4.97;3.00;;;;;;;;;;5035615;28;20261;-73
2024/02/16 04:13:44;;;;;;;2.73;2.50;;;;;;;;;;5033646;28;20174;-73
2024/02/16 04:16:09;;;;;;;3.03;2.60;;;;;;;;;;5046926;28;20198;-73
2024/02/16 04:18:34;;;;;;;4.72;3.25;;;;;;;;;;5037779;28;20561;-73
2024/02/16 04:20:59;;;;;;;3.53;2.67;;;;;;;;;;5048391;28;20335;-73
2024/02/16 04:23:25;;;;;;;5.55;3.72;;;;;;;;;;5054012;28;20199;-72
2024/02/16 04:25:50;;;;;;;4.80;3.30;;;;;;;;;;5059416;28;20225;-73
2024/02/16 04:28:18;;;;;;;3.70;2.60;;;;;;;;;;5047271;28;20183;-71
2024/02/16 04:30:43;;;;;;;5.47;3.53;;;;;;;;;;5032284;28;20212;-70
2024/02/16 04:33:08;;;;;;;4.43;3.00;;;;;;;;;;5053324;28;20274;-72
2024/02/16 04:35:33;;;;;;;6.63;2.90;;;;;;;;;;5057031;28;20541;-72
2024/02/16 04:37:58;;;;;;;3.72;2.53;;;;;;;;;;5053366;28;20182;-72
2024/02/16 04:40:24;;;;;;;5.10;3.13;;;;;;;;;;5034234;28;20185;-72
2024/02/16 04:42:50;;;;;;;3.93;2.97;;;;;;;;;;5046697;28;20204;-71
2024/02/16 04:45:15;;;;;;;3.50;2.70;;;;;;;;;;5054588;28;20182;-72
2024/02/16 04:47:41;;;;;;;8.55;3.50;;;;;;;;;;5038165;28;20253;-72
2024/02/16 04:50:09;;;;;;;6.60;3.00;;;;;;;;;;5051453;28;20241;-71
2024/02/16 04:52:35;;;;;;;5.25;3.42;;;;;;;;;;5035340;28;20184;-71
2024/02/16 04:55:00;;;;;;;6.37;2.77;;;;;;;;;;5047472;28;20188;-72
2024/02/16 04:57:26;;;;;;;5.93;2.58;;;;;;;;;;5032557;28;20202;-72
2024/02/16 04:59:51;;;;;;;5.20;3.30;;;;;;;;;;5048014;28;20189;-72
2024/02/16 05:02:16;;;;;;;4.93;2.83;;;;;;;;;;5026726;28;20618;-72
2024/02/16 05:04:42;;;;;;;6.88;2.67;;;;;;;;;;5033719;28;20661;-73
2024/02/16 05:07:07;;;;;;;4.53;2.72;;;;;;;;;;5046549;28;20678;-70
2024/02/16 05:09:32;;;;;;;3.90;2.97;;;;;;;;;;5030067;28;20563;-72
2024/02/16 05:11:57;;;;;;;8.15;3.30;;;;;;;;;;5048888;28;20265;-72
2024/02/16 05:14:23;;;;;;;6.67;3.00;;;;;;;;;;5048065;28;20665;-72
2024/02/16 05:16:50;;;;;;;6.38;3.92;;;;;;;;;;5035961;28;20734;-72
2024/02/16 05:19:15;;;;;;;5.32;3.03;;;;;;;;;;5050860;28;20179;-73
2024/02/16 05:21:40;;;;;;;4.10;2.90;;;;;;;;;;5052894;28;20664;-72
2024/02/16 05:24:06;;;;;;;3.63;2.78;;;;;;;;;;5047334;28;20193;-71
2024/02/16 05:26:31;;;;;;;4.40;2.83;;;;;;;;;;5037947;28;20197;-71
2024/02/16 05:28:56;;;;;;;5.60;3.00;;;;;;;;;;5031986;28;20684;-72
2024/02/16 05:31:21;;;;;;;6.57;3.22;;;;;;;;;;5044169;28;20186;-72
2024/02/16 05:33:50;;;;;;;6.18;3.00;;;;;;;;;;5052320;28;20185;-71
2024/02/16 05:36:20;;;;;;;4.63;3.22;;;;;;;;;;5046478;28;20190;-72
2024/02/16 05:38:46;;;;;;;7.07;2.95;;;;;;;;;;5048881;28;20787;-72
2024/02/16 05:41:11;;;;;;;3.88;2.95;;;;;;;;;;5048376;28;20272;-72
2024/02/16 05:43:37;;;;;;;6.63;2.95;;;;;;;;;;5050068;28;20185;-72
2024/02/16 05:46:06;;;;;;;5.15;3.40;;;;;;;;;;5047582;28;20719;-71
2024/02/16 05:48:31;;;;;;;4.20;2.53;;;;;;;;;;5045071;28;20208;-72
2024/02/16 05:50:59;;;;;;;6.18;2.85;;;;;;;;;;5046414;28;20177;-72
2024/02/16 05:53:25;;;;;;;4.13;2.97;;;;;;;;;;5054756;28;20645;-71
2024/02/16 05:55:50;;;;;;;6.50;3.72;;;;;;;;;;5056324;28;20196;-71
2024/02/16 05:58:15;;;;;;;4.00;2.95;;;;;;;;;;5049869;28;20173;-72
2024/02/16 06:00:42;;;;;;;4.32;3.28;;;;;;;;;;5055138;28;20862;-73
2024/02/16 06:03:07;;;;;;;4.00;3.15;;;;;;;;;;5034439;28;20185;-72
2024/02/16 06:05:33;;;;;;;3.38;2.72;;;;;;;;;;5052218;28;20173;-72
2024/02/16 06:07:59;;;;;;;4.70;2.88;;;;;;;;;;5035146;28;20653;-72
2024/02/16 06:10:24;;;;;;;4.40;2.95;;;;;;;;;;5032497;28;20263;-72
2024/02/16 06:12:49;;;;;;;4.13;2.88;;;;;;;;;;5051061;28;20193;-72
2024/02/16 06:15:14;;;;;;;4.65;2.90;;;;;;;;;;5049085;28;20213;-72
2024/02/16 06:17:40;;;;;;;4.45;3.05;;;;;;;;;;5049792;28;20189;-72
2024/02/16 06:20:07;;;;;;;4.30;3.15;;;;;;;;;;5047267;28;20181;-73
2024/02/16 06:22:33;;;;;;;6.93;3.20;;;;;;;;;;5054469;28;20170;-72
2024/02/16 06:24:58;;;;;;;4.45;2.88;;;;;;;;;;5054440;28;20181;-73
2024/02/16 06:27:24;;;;;;;4.82;2.95;;;;;;;;;;5032996;28;20271;-72
2024/02/16 06:29:49;;;;;;;5.97;2.97;;;;;;;;;;5047495;28;20209;-71
2024/02/16 06:32:16;;;;;;;7.10;2.95;;;;;;;;;;5051021;28;20177;-73
2024/02/16 06:34:42;;;;;;;4.72;2.88;;;;;;;;;;5052687;28;20170;-72
2024/02/16 06:37:07;;;;;;;4.05;2.85;;;;;;;;;;5033065;28;20707;-72
2024/02/16 06:39:32;;;;;;;7.15;3.97;;;;;;;;;;5034163;28;20704;-72
2024/02/16 06:41:57;;;;;;;6.03;3.53;;;;;;;;;;5052035;28;20189;-72
2024/02/16 06:44:23;;;;;;;4.85;3.15;;;;;;;;;;5042377;28;20652;-72
2024/02/16 06:46:48;;;;;;;5.60;3.00;;;;;;;;;;5052666;28;20229;-72
2024/02/16 06:49:13;;;;;;;5.80;3.13;;;;;;;;;;5034715;28;20205;-73
2024/02/16 06:51:38;;;;;;;8.32;4.20;;;;;;;;;;5037887;28;20255;-74
2024/02/16 06:54:04;;;;;;;3.58;2.58;;;;;;;;;;5034564;28;20819;-73
2024/02/16 06:56:29;;;;;;;5.85;3.75;;;;;;;;;;5051041;28;20201;-71
2024/02/16 06:58:54;;;;;;;5.95;2.85;;;;;;;;;;5049568;28;20186;-72
2024/02/16 07:01:19;;;;;;;6.13;3.75;;;;;;;;;;5031680;28;20201;-73
2024/02/16 07:03:45;;;;;;;6.18;3.80;;;;;;;;;;5050702;28;20177;-72
2024/02/16 07:06:13;;;;;;;6.03;3.55;;;;;;;;;;5052196;28;20232;-72
2024/02/16 07:08:38;;;;;;;5.60;3.65;;;;;;;;;;5051771;28;20549;-72
2024/02/16 07:11:04;;;;;;;5.00;3.08;;;;;;;;;;5052488;28;20189;-72
2024/02/16 07:13:29;;;;;;;7.03;4.15;;;;;;;;;;5032104;28;20216;-71
2024/02/16 07:15:55;;;;;;;6.88;3.63;;;;;;;;;;5052678;28;20189;-72
2024/02/16 07:18:21;;;;;;;6.90;4.10;;;;;;;;;;5050288;28;20174;-72
2024/02/16 07:20:47;;;;;;;7.28;3.63;;;;;;;;;;5035142;28;20182;-71
2024/02/16 07:23:12;;;;;;;4.07;3.00;;;;;;;;;;5030064;28;20177;-71
2024/02/16 07:25:37;;;;;;;8.75;3.83;;;;;;;;;;5049144;28;20236;-72
2024/02/16 07:28:03;;;;;;;5.78;3.17;;;;;;;;;;5047438;28;20254;-72
2024/02/16 07:30:28;;;;;;;4.15;3.28;;;;;;;;;;5034560;28;20204;-72
2024/02/16 07:32:54;;;;;;;7.25;3.78;;;;;;;;;;5047910;28;20182;-73
2024/02/16 07:35:21;;;;;;;9.05;4.03;;;;;;;;;;5050752;28;20661;-72
2024/02/16 07:37:46;;;;;;;6.07;3.85;;;;;;;;;;5049519;28;20304;-73
2024/02/16 07:40:11;;;;;;;4.72;3.10;;;;;;;;;;5049974;28;20256;-72
2024/02/16 07:42:42;;;;;;;4.30;3.13;;;;;;;;;;5044186;28;20191;-72
2024/02/16 07:45:09;;;;;;;6.82;3.38;;;;;;;;;;5052610;28;20186;-72
2024/02/16 07:47:34;;;;;;;7.07;4.22;;;;;;;;;;5048320;28;20300;-73
2024/02/16 07:49:59;;;;;;;4.38;2.97;;;;;;;;;;5029796;28;20305;-72
2024/02/16 07:52:25;;;;;;;6.03;3.67;;;;;;;;;;5030729;28;20240;-72
2024/02/16 07:54:51;;;;;;;7.68;4.63;;;;;;;;;;5047978;28;20206;-72
2024/02/16 07:57:16;;;;;;;5.30;3.60;;;;;;;;;;5035447;28;20229;-72
2024/02/16 07:59:42;;;;;;;6.97;3.92;;;;;;;;;;5035299;28;20626;-73
2024/02/16 08:02:09;;;;;;;6.15;3.25;;;;;;;;;;5032265;28;20730;-73
2024/02/16 08:04:34;;;;;;;9.15;4.05;;;;;;;;;;5029846;28;20185;-72
2024/02/16 08:07:01;;;;;;;7.20;4.43;;;;;;;;;;5029070;28;20233;-73
2024/02/16 08:09:26;;;;;;;5.68;3.95;;;;;;;;;;5024080;28;20209;-72
2024/02/16 08:11:51;;;;;;;6.60;3.55;;;;;;;;;;5040550;28;20185;-71
2024/02/16 08:14:16;;;;;;;8.05;3.95;;;;;;;;;;5041325;28;20182;-72
2024/02/16 08:16:41;;;;;;;5.25;3.55;;;;;;;;;;5042086;28;20198;-71
2024/02/16 08:19:07;;;;;;;6.82;3.85;;;;;;;;;;5046179;28;20189;-71
2024/02/16 08:21:32;;;;;;;8.75;4.00;;;;;;;;;;5046550;28;20219;-71
2024/02/16 08:23:57;;;;;;;6.10;3.33;;;;;;;;;;5045070;28;20645;-71
2024/02/16 08:26:22;;;;;;;7.95;3.85;;;;;;;;;;5043616;28;20220;-71
2024/02/16 08:28:47;;;;;;;7.97;4.25;;;;;;;;;;5042970;28;20300;-72
2024/02/16 08:31:17;;;;;;;5.95;3.80;;;;;;;;;;5024960;28;20252;-72
2024/02/16 08:33:43;;;;;;;5.18;3.90;;;;;;;;;;5044836;28;20654;-71
2024/02/16 08:36:08;;;;;;;6.05;4.10;;;;;;;;;;5031308;28;20266;-72
2024/02/16 08:38:33;;;;;;;8.60;4.38;;;;;;;;;;5047395;28;20622;-71
2024/02/16 08:40:59;;;;;;;4.38;3.80;;;;;;;;;;5033883;28;20185;-70
2024/02/16 08:43:25;;;;;;;4.32;3.33;;;;;;;;;;5048367;28;20221;-72
2024/02/16 08:45:51;;;;;;;6.22;3.75;;;;;;;;;;5048277;28;20627;-70
2024/02/16 08:48:16;;;;;;;7.00;4.45;;;;;;;;;;5045337;28;20221;-72
2024/02/16 08:50:41;;;;;;;7.28;4.43;;;;;;;;;;5046003;28;20253;-71
2024/02/16 08:53:07;;;;;;;8.70;4.72;;;;;;;;;;5052827;28;20266;-72
2024/02/16 08:55:32;;;;;;;6.35;3.95;;;;;;;;;;5047496;28;20178;-71
2024/02/16 08:57:57;;;;;;;5.32;3.75;;;;;;;;;;5051566;28;20177;-73
2024/02/16 09:00:25;;;;;;;6.38;4.10;;;;;;;;;;5046678;28;20632;-71
2024/02/16 09:02:50;;;;;;;5.20;3.45;;;;;;;;;;5049759;28;20182;-72
2024/02/16 09:05:15;;;;;;;6.07;4.10;;;;;;;;;;5048981;28;20561;-71
2024/02/16 09:07:41;;;;;;;9.57;4.53;;;;;;;;;;5049102;28;20212;-72
2024/02/16 09:10:07;;;;;;;9.27;4.82;;;;;;;;;;5048714;28;20714;-72
2024/02/16 09:12:33;;;;;;;6.78;4.35;;;;;;;;;;5046160;28;20181;-71
2024/02/16 09:14:58;;;;;;;6.63;4.00;;;;;;;;;;5050057;28;20181;-71
2024/02/16 09:17:23;;;;;;;5.32;3.80;;;;;;;;;;5047595;28;20561;-71
2024/02/16 09:19:48;;;;;;;5.95;4.20;;;;;;;;;;5041421;28;20217;-71
2024/02/16 09:22:13;;;;;;;7.57;3.92;;;;;;;;;;5046178;28;20556;-72
2024/02/16 09:24:40;;;;;;;9.05;4.63;;;;;;;;;;5051071;28;20181;-71
2024/02/16 09:27:05;;;;;;;8.77;4.07;;;;;;;;;;5044347;28;20214;-71
2024/02/16 09:29:31;;;;;;;7.03;4.10;;;;;;;;;;5048380;28;20206;-71
2024/02/16 09:31:56;;;;;;;11.00;3.53;;;;;;;;;;5049711;28;20836;-71
2024/02/16 09:34:21;;;;;;;10.65;3.97;;;;;;;;;;5049362;28;20184;-71
2024/02/16 09:36:46;;;;;;;14.13;5.53;;;;;;;;;;5049612;28;20280;-71
2024/02/16 09:39:12;;;;;;;7.85;4.35;;;;;;;;;;5043530;28;20720;-70
2024/02/16 09:41:40;;;;;;;11.35;5.43;;;;;;;;;;5049511;28;20188;-72
2024/02/16 09:44:06;;;;;;;7.68;4.90;;;;;;;;;;5047553;28;20640;-71
2024/02/16 09:46:32;;;;;;;9.48;5.20;;;;;;;;;;5048403;28;20311;-72
2024/02/16 09:49:00;;;;;;;7.22;4.40;;;;;;;;;;5041866;28;20205;-71
2024/02/16 09:51:25;;;;;;;6.70;4.53;;;;;;;;;;5032011;28;20693;-70
2024/02/16 09:53:57;;;;;;;10.25;5.20;;;;;;;;;;5031879;28;20213;-71
2024/02/16 09:56:24;;;;;;;6.03;4.32;;;;;;;;;;5026148;28;20193;-71
2024/02/16 09:58:51;;;;;;;11.15;5.40;;;;;;;;;;5048680;28;20178;-71
2024/02/16 10:01:17;;;;;;;9.38;5.15;;;;;;;;;;5044403;28;20218;-72
2024/02/16 10:03:43;;;;;;;10.77;5.10;;;;;;;;;;5046598;28;20174;-70
2024/02/16 10:06:09;;;;;;;12.07;5.15;;;;;;;;;;5028077;28;20198;-71
2024/02/16 10:08:35;;;;;;;7.15;5.20;;;;;;;;;;5044098;28;20199;-70
2024/02/16 10:11:01;;;;;;;10.30;5.55;;;;;;;;;;5048668;28;20177;-72
2024/02/16 10:13:26;;;;;;;8.88;5.38;;;;;;;;;;5047197;28;20644;-71
2024/02/16 10:15:51;;;;;;;8.95;6.70;;;;;;;;;;5033837;28;20193;-71
2024/02/16 10:18:19;;;;;;;10.32;5.90;;;;;;;;;;5047681;28;20578;-71
2024/02/16 10:20:44;;;;;;;9.38;5.38;;;;;;;;;;5035195;28;20262;-71
2024/02/16 10:23:10;;;;;;;9.95;4.78;;;;;;;;;;5046270;28;20665;-70
2024/02/16 10:25:36;;;;;;;11.48;5.90;;;;;;;;;;5029098;28;20186;-70
2024/02/16 10:28:16;;;;;;;10.48;6.03;;;;;;;;;;5045896;28;20311;-70
2024/02/16 10:30:43;;;;;;;10.30;6.53;;;;;;;;;;5046538;28;20197;-70
2024/02/16 10:33:08;;;;;;;13.00;5.80;;;;;;;;;;5046198;28;20177;-71
2024/02/16 10:35:34;;;;;;;8.75;5.85;;;;;;;;;;5048007;28;20173;-72
2024/02/16 10:38:02;;;;;;;13.65;6.18;;;;;;;;;;5048045;28;20638;-71
2024/02/16 10:40:28;;;;;;;12.38;6.70;;;;;;;;;;5047951;28;20177;-72
2024/02/16 10:42:54;;;;;;;11.05;6.85;;;;;;;;;;5027574;28;20311;-72
2024/02/16 10:45:20;;;;;;;11.90;7.10;;;;;;;;;;5045738;28;20684;-72
2024/02/16 10:47:45;;;;;;;14.57;8.52;;;;;;;;;;5047669;28;20197;-73
2024/02/16 10:50:11;;;;;;;13.63;7.40;;;;;;;;;;5047832;28;20557;-73
2024/02/16 10:52:39;;;;;;;17.52;8.93;;;;;;;;;;5030218;28;20200;-72
2024/02/16 10:55:05;;;;;;;14.40;8.25;;;;;;;;;;5051100;28;20577;-72
2024/02/16 10:57:31;;;;;;;14.18;7.97;;;;;;;;;;5045981;28;20264;-72
2024/02/16 10:59:58;;;;;;;18.65;8.63;;;;;;;;;;5041496;28;20665;-73
2024/02/16 11:02:23;;;;;;;17.92;9.15;;;;;;;;;;5042618;28;21924;-72
2024/02/16 11:04:51;;;;;;;17.52;9.50;;;;;;;;;;5045428;28;20265;-73
2024/02/16 11:07:18;;;;;;;12.90;8.73;;;;;;;;;;5030404;28;20202;-72
2024/02/16 11:09:44;;;;;;;17.02;9.43;;;;;;;;;;5031787;28;20202;-73
2024/02/16 11:12:17;;;;;;;15.80;9.48;;;;;;;;;;5042408;28;20181;-73
2024/02/16 11:14:44;;;;;;;15.85;10.20;;;;;;;;;;5048299;28;20325;-73
2024/02/16 11:17:10;;;;;;;13.02;8.85;;;;;;;;;;5046614;28;20206;-73
2024/02/16 11:19:35;;;;;;;11.60;8.93;;;;;;;;;;5048749;28;20181;-73
2024/02/16 11:22:08;;;;;;;19.80;11.32;;;;;;;;;;5049888;28;20239;-73
2024/02/16 11:24:34;;;;;;;14.25;9.43;;;;;;;;;;5050612;28;20183;-73
2024/02/16 11:27:01;;;;;;;14.63;10.00;;;;;;;;;;5050146;28;20205;-72
2024/02/16 11:29:28;;;;;;;22.27;10.60;;;;;;;;;;5047009;28;20236;-72
2024/02/16 11:31:56;;;;;;;17.30;8.70;;;;;;;;;;5036006;28;20184;-73
2024/02/16 11:34:22;;;;;;;18.02;10.68;;;;;;;;;;5050818;28;20636;-72
2024/02/16 11:36:48;;;;;;;17.17;10.07;;;;;;;;;;5034478;28;20213;-72
2024/02/16 11:39:16;;;;;;;17.48;10.02;;;;;;;;;;5047704;28;20191;-72
2024/02/16 11:41:41;;;;;;;18.20;10.65;;;;;;;;;;5034897;28;20189;-72
2024/02/16 11:44:06;;;;;;;16.50;9.07;;;;;;;;;;5028640;28;20482;-73
2024/02/16 11:46:31;;;;;;;17.42;10.18;;;;;;;;;;5040616;28;20228;-71
2024/02/16 11:49:04;;;;;;;14.45;9.57;;;;;;;;;;5045602;28;20244;-72
2024/02/16 11:51:29;;;;;;;15.45;9.35;;;;;;;;;;5029685;28;20182;-74
2024/02/16 11:53:56;;;;;;;17.48;8.80;;;;;;;;;;5046199;28;20181;-74
2024/02/16 11:56:22;;;;;;;18.58;9.60;;;;;;;;;;5030717;28;20652;-72
2024/02/16 11:58:47;;;;;;;18.30;8.63;;;;;;;;;;5046042;28;20540;-72
2024/02/16 12:01:12;;;;;;;12.63;7.70;;;;;;;;;;5034171;28;20196;-72
2024/02/16 12:03:40;;;;;;;11.70;7.80;;;;;;;;;;5047262;28;20177;-71
2024/02/16 12:06:06;;;;;;;10.80;7.75;;;;;;;;;;5030217;28;20202;-72
2024/02/16 12:08:35;;;;;;;15.32;7.85;;;;;;;;;;5046907;28;20240;-71
2024/02/16 12:11:00;;;;;;;12.38;6.80;;;;;;;;;;5033067;28;20289;-72
2024/02/16 12:13:26;;;;;;;12.05;7.35;;;;;;;;;;5044590;28;20203;-72
2024/02/16 12:15:52;;;;;;;10.38;6.93;;;;;;;;;;5053125;28;20232;-72
2024/02/16 12:18:20;;;;;;;12.48;6.45;;;;;;;;;;5033483;28;20182;-73
2024/02/16 12:20:56;;;;;;;10.55;6.72;;;;;;;;;;5052673;28;20178;-72
2024/02/16 12:23:21;;;;;;;9.10;5.57;;;;;;;;;;5050494;28;20181;-73
2024/02/16 12:25:46;;;;;;;5.80;4.28;;;;;;;;;;5034069;28;20222;-72
2024/02/16 12:28:11;;;;;;;7.05;4.00;;;;;;;;;;5049339;28;20200;-72
2024/02/16 12:30:37;;;;;;;4.80;4.05;;;;;;;;;;5052327;28;20767;-72
2024/02/16 12:33:02;;;;;;;8.02;4.13;;;;;;;;;;5049264;28;20170;-72
2024/02/16 12:35:27;;;;;;;5.40;3.50;;;;;;;;;;5033322;28;20699;-71
2024/02/16 12:37:53;;;;;;;5.10;2.80;;;;;;;;;;5049566;28;20641;-72
2024/02/16 12:40:18;;;;;;;6.43;2.67;;;;;;;;;;5049848;28;20220;-73
2024/02/16 12:42:44;;;;;;;6.25;3.08;;;;;;;;;;5033885;28;20695;-72
2024/02/16 12:45:10;;;;;;;5.18;3.30;;;;;;;;;;5049458;28;20184;-73
2024/02/16 12:47:35;;;;;;;3.95;2.80;;;;;;;;;;5052277;28;20217;-73
2024/02/16 12:50:01;;;;;;;5.75;2.75;;;;;;;;;;5028090;28;20201;-72
2024/02/16 12:52:26;;;;;;;3.45;2.60;;;;;;;;;;5032699;28;20185;-73
2024/02/16 12:54:52;;;;;;;4.07;2.58;;;;;;;;;;5053389;28;20189;-73
2024/02/16 12:57:18;;;;;;;4.38;2.03;;;;;;;;;;5053690;28;20210;-73
2024/02/16 12:59:43;;;;;;;2.63;2.08;;;;;;;;;;5033940;28;20179;-73
2024/02/16 13:02:08;;;;;;;2.97;2.13;;;;;;;;;;5050098;28;20247;-73
2024/02/16 13:04:33;;;;;;;2.65;1.95;;;;;;;;;;5045321;28;20213;-72
2024/02/16 13:06:59;;;;;;;4.75;2.05;;;;;;;;;;5048369;28;20328;-72
2024/02/16 13:09:24;;;;;;;2.42;2.22;;;;;;;;;;5045471;28;20205;-72
2024/02/16 13:11:54;;;;;;;3.78;2.28;;;;;;;;;;5034287;28;20182;-72
2024/02/16 13:14:19;;;;;;;3.00;2.10;;;;;;;;;;5047936;28;20242;-73
2024/02/16 13:16:44;;;;;;;2.70;1.85;;;;;;;;;;5050155;28;20692;-73
2024/02/16 13:19:09;;;;;;;2.63;2.15;;;;;;;;;;5051262;28;20284;-73
2024/02/16 13:21:35;;;;;;;3.20;1.77;;;;;;;;;;5047639;28;20646;-72
2024/02/16 13:24:00;;;;;;;2.95;1.80;;;;;;;;;;5048647;28;20185;-74
2024/02/16 13:26:25;;;;;;;2.05;1.58;;;;;;;;;;5047711;28;20216;-73
2024/02/16 13:28:52;;;;;;;3.15;2.03;;;;;;;;;;5056418;28;21241;-73
2024/02/16 13:31:17;;;;;;;5.93;2.35;;;;;;;;;;5048940;28;20235;-73
2024/02/16 13:33:42;;;;;;;4.55;2.63;;;;;;;;;;5044798;28;20178;-73
2024/02/16 13:36:09;;;;;;;3.88;3.17;;;;;;;;;;5054078;28;20653;-73
2024/02/16 13:38:34;;;;;;;4.22;2.92;;;;;;;;;;5033598;28;20174;-74
2024/02/16 13:40:59;;;;;;;5.80;3.28;;;;;;;;;;5049410;28;20174;-74
2024/02/16 13:43:25;;;;;;;4.63;3.30;;;;;;;;;;5053445;28;20174;-73
2024/02/16 13:45:51;;;;;;;4.65;3.60;;;;;;;;;;5053146;28;20204;-74
2024/02/16 13:48:16;;;;;;;8.52;4.45;;;;;;;;;;5051796;28;20170;-74
2024/02/16 13:50:51;;;;;;;9.10;4.38;;;;;;;;;;5046295;28;20669;-74
2024/02/16 13:53:16;;;;;;;5.93;4.00;;;;;;;;;;5034958;28;20198;-73
2024/02/16 13:55:43;;;;;;;6.53;4.82;;;;;;;;;;5042354;28;20702;-74
2024/02/16 13:58:09;;;;;;;9.23;4.55;;;;;;;;;;5048414;28;20186;-71
2024/02/16 14:00:34;;;;;;;6.85;4.40;;;;;;;;;;5045253;28;20269;-73
2024/02/16 14:02:59;;;;;;;7.03;4.78;;;;;;;;;;5048699;28;20190;-72
2024/02/16 14:05:25;;;;;;;6.88;4.53;;;;;;;;;;5040181;28;20302;-74
2024/02/16 14:07:50;;;;;;;8.23;4.30;;;;;;;;;;5047879;28;20177;-74
2024/02/16 14:10:16;;;;;;;5.80;4.30;;;;;;;;;;5049315;28;20212;-71
2024/02/16 14:12:41;;;;;;;8.18;5.03;;;;;;;;;;5042484;28;20188;-72
2024/02/16 14:15:06;;;;;;;6.15;4.03;;;;;;;;;;5052028;28;20181;-73
2024/02/16 14:17:32;;;;;;;4.85;3.78;;;;;;;;;;5051587;28;20625;-71
2024/02/16 14:19:57;;;;;;;6.82;4.68;;;;;;;;;;5044913;28;20205;-72
2024/02/16 14:22:23;;;;;;;6.93;4.30;;;;;;;;;;5050448;28;20212;-72
2024/02/16 14:24:48;;;;;;;10.07;4.30;;;;;;;;;;5053349;28;20188;-73
2024/02/16 14:27:14;;;;;;;7.65;3.58;;;;;;;;;;5047590;28;21334;-72
2024/02/16 14:29:39;;;;;;;6.22;4.05;;;;;;;;;;5042878;28;20194;-72
2024/02/16 14:32:04;;;;;;;6.05;4.88;;;;;;;;;;5023354;28;20170;-72